Time;durP1;ratioP1;P1;durP2;ratioP2;P2;SDS_P1;SDS_P2;PMS_P1;PMS_P2;Temp;Humidity;BMP_temperature;BMP_pressure;BME280_temperature;BME280_humidity;BME280_pressure;Samples;Min_cycle;Max_cycle;Signal;HPM_P1;HPM_P2
2023/08/21 00:01:40;;;;;;;;;1.25;1.00;;;;;21.86;54.74;101732.38;5083698;27;45274;-83
2023/08/21 00:04:05;;;;;;;;;1.00;1.00;;;;;21.69;54.34;101706.75;5096538;27;45468;-83
2023/08/21 00:06:31;;;;;;;;;3.50;1.00;;;;;21.83;54.86;101735.22;5081959;27;45440;-82
2023/08/21 00:08:57;;;;;;;;;1.75;0.50;;;;;21.78;54.75;101721.34;5098957;27;45456;-83
2023/08/21 00:11:22;;;;;;;;;0.00;0.00;;;;;21.84;54.83;101726.28;5091650;27;45446;-84
2023/08/21 00:13:49;;;;;;;;;0.00;0.00;;;;;21.86;54.59;101728.88;5104523;27;45385;-84
2023/08/21 00:16:16;;;;;;;;;2.00;1.00;;;;;21.76;54.63;101709.88;5085262;27;45570;-83
2023/08/21 00:18:44;;;;;;;;;1.25;1.00;;;;;21.74;54.80;101709.13;5098553;27;45532;-83
2023/08/21 00:21:10;;;;;;;;;3.25;1.00;;;;;21.64;54.85;101691.97;5099104;27;45392;-82
2023/08/21 00:23:36;;;;;;;;;1.25;0.50;;;;;21.58;54.65;101687.84;5099245;27;45360;-83
2023/08/21 00:26:02;;;;;;;;;1.50;0.00;;;;;21.73;54.13;101716.28;5094725;27;62182;-84
2023/08/21 00:28:32;;;;;;;;;0.75;0.25;;;;;21.66;54.74;101706.06;5078257;27;47081;-84
2023/08/21 00:31:05;;;;;;;;;1.50;0.75;;;;;21.44;55.00;101680.63;5091031;27;45623;-82
2023/08/21 00:33:31;;;;;;;;;2.00;2.00;;;;;21.62;54.85;101710.72;5083187;27;45402;-83
2023/08/21 00:35:56;;;;;;;;;0.25;0.25;;;;;21.52;54.84;101713.03;5096567;27;46114;-84
2023/08/21 00:38:22;;;;;;;;;2.00;1.00;;;;;21.43;54.71;101698.41;5071786;27;46889;-84
2023/08/21 00:40:48;;;;;;;;;1.00;1.00;;;;;21.38;55.16;101692.50;5075994;27;45319;-82
2023/08/21 00:43:14;;;;;;;;;0.75;0.50;;;;;21.42;55.19;101699.38;5084389;27;48167;-82
2023/08/21 00:45:41;;;;;;;;;2.75;0.25;;;;;21.41;55.24;101699.47;5088799;27;45334;-81
2023/08/21 00:48:07;;;;;;;;;1.50;0.75;;;;;21.39;55.17;101704.88;5091953;27;47197;-81
2023/08/21 00:50:32;;;;;;;;;5.25;1.75;;;;;21.41;55.35;101710.97;5096814;27;58579;-81
2023/08/21 00:52:58;;;;;;;;;1.50;1.00;;;;;21.41;55.35;101715.44;5087013;27;62177;-81
2023/08/21 00:55:23;;;;;;;;;3.25;0.00;;;;;21.38;55.11;101705.81;5089584;27;45490;-81
2023/08/21 00:57:49;;;;;;;;;3.50;0.00;;;;;21.42;55.40;101711.81;5093524;27;46922;-82
2023/08/21 01:00:14;;;;;;;;;1.25;0.00;;;;;21.35;55.04;101700.66;5078411;28;45359;-82
2023/08/21 01:02:40;;;;;;;;;1.00;1.00;;;;;21.32;55.08;101695.53;5096253;27;45853;-81
2023/08/21 01:05:05;;;;;;;;;3.25;0.25;;;;;21.31;55.02;101712.44;5098317;27;63084;-81
2023/08/21 01:07:36;;;;;;;;;2.50;0.75;;;;;21.27;55.35;101708.22;5099369;27;46427;-81
2023/08/21 01:10:14;;;;;;;;;0.00;0.00;;;;;21.27;55.59;101716.22;5096652;27;45403;-80
2023/08/21 01:12:42;;;;;;;;;1.00;1.00;;;;;21.25;55.12;101715.44;5090700;27;45393;-80
2023/08/21 01:15:09;;;;;;;;;0.75;0.75;;;;;21.22;55.36;101715.63;5093217;27;45244;-79
2023/08/21 01:17:36;;;;;;;;;2.75;0.75;;;;;21.17;55.30;101715.88;5084263;27;46721;-80
2023/08/21 01:20:03;;;;;;;;;0.75;0.75;;;;;21.16;55.16;101714.16;5085413;27;45265;-80
2023/08/21 01:22:36;;;;;;;;;2.25;0.50;;;;;21.17;55.58;101720.34;5090911;27;45389;-80
2023/08/21 01:25:01;;;;;;;;;1.00;1.00;;;;;21.15;55.61;101715.09;5091982;27;45436;-81
2023/08/21 01:27:27;;;;;;;;;1.00;1.00;;;;;21.14;55.75;101723.16;5082534;27;47076;-81
2023/08/21 01:29:53;;;;;;;;;0.75;0.00;;;;;21.16;55.27;101727.47;5073856;27;61550;-80
2023/08/21 01:33:05;;;;;;;;;1.00;0.75;;;;;21.17;55.47;101723.84;5078561;27;45412;-81
2023/08/21 01:35:31;;;;;;;;;1.25;0.75;;;;;21.16;55.76;101718.59;5094011;27;45444;-81
2023/08/21 01:37:57;;;;;;;;;2.25;0.00;;;;;21.20;55.56;101726.34;5085076;27;45402;-82
2023/08/21 01:40:23;;;;;;;;;2.25;0.50;;;;;21.21;55.22;101732.53;5086639;27;60183;-82
2023/08/21 01:42:48;;;;;;;;;2.25;0.75;;;;;21.16;55.51;101722.16;5074049;27;45444;-82
2023/08/21 01:45:14;;;;;;;;;2.25;1.75;;;;;21.15;55.20;101717.75;5099556;27;45351;-82
2023/08/21 01:47:39;;;;;;;;;5.25;1.00;;;;;21.14;55.64;101723.16;5101665;27;52053;-83
2023/08/21 01:50:05;;;;;;;;;2.00;1.00;;;;;21.10;55.36;101725.13;5097348;27;45260;-82
2023/08/21 01:52:31;;;;;;;;;3.00;1.00;;;;;21.07;55.74;101722.66;5101846;27;45434;-81
2023/08/21 01:54:56;;;;;;;;;1.75;1.00;;;;;21.07;55.39;101720.00;5088446;27;45626;-83
2023/08/21 01:57:22;;;;;;;;;2.00;1.00;;;;;21.02;55.58;101725.56;5101699;27;73640;-83
2023/08/21 01:59:48;;;;;;;;;3.00;1.00;;;;;21.02;55.97;101738.88;5086175;27;45612;-83
2023/08/21 02:02:14;;;;;;;;;0.75;0.75;;;;;20.95;55.77;101728.66;5081366;27;45376;-83
2023/08/21 02:04:39;;;;;;;;;1.50;0.75;;;;;20.92;55.56;101720.84;5096903;27;64984;-84
2023/08/21 02:07:04;;;;;;;;;2.00;2.00;;;;;20.92;55.65;101723.50;5102521;27;45377;-83
2023/08/21 02:09:30;;;;;;;;;0.00;0.00;;;;;20.88;55.89;101733.47;5080139;27;45292;-84
2023/08/21 02:11:55;;;;;;;;;1.00;0.00;;;;;20.86;56.22;101719.38;5087640;27;66813;-83
2023/08/21 02:14:20;;;;;;;;;1.00;1.00;;;;;20.84;56.01;101721.25;5089433;27;58186;-83
2023/08/21 02:16:46;;;;;;;;;2.25;1.00;;;;;20.84;56.07;101718.59;5089965;27;68081;-83
2023/08/21 02:19:11;;;;;;;;;4.50;1.50;;;;;20.88;56.33;101736.13;5097550;27;45401;-83
2023/08/21 02:21:36;;;;;;;;;3.75;1.00;;;;;20.83;56.38;101724.88;5076921;27;59092;-83
2023/08/21 02:24:02;;;;;;;;;1.00;0.00;;;;;20.82;56.46;101723.13;5100826;27;67668;-83
2023/08/21 02:26:27;;;;;;;;;1.50;1.00;;;;;20.82;56.44;101728.47;5067648;27;47321;-83
2023/08/21 02:28:52;;;;;;;;;1.75;1.00;;;;;20.80;56.22;101722.38;5090208;27;45386;-82
2023/08/21 02:31:19;;;;;;;;;3.75;1.75;;;;;20.78;56.78;101718.94;5092879;27;45326;-83
2023/08/21 02:33:44;;;;;;;;;1.00;1.00;;;;;20.76;56.79;101716.34;5096758;27;45424;-83
2023/08/21 02:36:09;;;;;;;;;2.25;2.25;;;;;20.71;56.54;101713.06;5094506;27;45994;-83
2023/08/21 02:38:35;;;;;;;;;3.00;1.00;;;;;20.71;56.79;101718.41;5084308;27;51304;-83
2023/08/21 02:41:00;;;;;;;;;3.25;2.00;;;;;20.70;56.69;101718.47;5080203;28;57782;-84
2023/08/21 02:43:26;;;;;;;;;2.00;1.25;;;;;20.69;56.75;101719.44;5085378;27;45363;-84
2023/08/21 02:45:51;;;;;;;;;2.75;1.00;;;;;20.60;57.03;101718.09;5065996;28;61257;-83
2023/08/21 02:48:17;;;;;;;;;2.50;2.00;;;;;20.58;56.82;101719.97;5080580;27;45459;-82
2023/08/21 02:50:42;;;;;;;;;6.00;1.75;;;;;20.57;56.74;101723.56;5092056;27;45276;-84
2023/08/21 02:53:08;;;;;;;;;2.25;2.00;;;;;20.55;57.28;101723.66;5084179;27;45336;-83
2023/08/21 02:55:33;;;;;;;;;2.00;1.75;;;;;20.56;57.62;101725.38;5067826;27;45637;-83
2023/08/21 02:57:59;;;;;;;;;1.00;1.00;;;;;20.55;57.09;101723.66;5087576;27;45223;-84
2023/08/21 03:00:24;;;;;;;;;2.25;1.00;;;;;20.58;57.49;101723.50;5090062;27;45254;-83
2023/08/21 03:02:50;;;;;;;;;1.00;1.00;;;;;20.60;56.98;101720.75;5083215;27;66226;-82
2023/08/21 03:05:15;;;;;;;;;3.75;2.50;;;;;20.62;57.46;101719.75;5101416;27;45494;-82
2023/08/21 03:07:41;;;;;;;;;4.00;4.00;;;;;20.68;57.12;101729.19;5080473;27;45521;-81
2023/08/21 03:10:07;;;;;;;;;5.00;3.75;;;;;20.66;57.15;101737.28;5102714;27;45344;-82
2023/08/21 03:12:32;;;;;;;;;7.75;5.50;;;;;20.64;57.16;101723.19;5083115;28;45500;-82
2023/08/21 03:14:57;;;;;;;;;10.25;9.00;;;;;20.60;57.44;101723.41;5085288;27;46651;-82
2023/08/21 03:17:24;;;;;;;;;6.50;3.50;;;;;20.52;57.23;101709.66;5104375;27;63634;-83
2023/08/21 03:19:49;;;;;;;;;12.75;6.75;;;;;20.50;57.73;101720.38;5095272;27;45371;-82
2023/08/21 03:22:14;;;;;;;;;7.00;4.25;;;;;20.51;57.72;101719.44;5099005;27;45412;-83
2023/08/21 03:24:40;;;;;;;;;7.00;6.00;;;;;20.47;57.73;101713.44;5094919;27;46125;-83
2023/08/21 03:27:05;;;;;;;;;8.50;5.25;;;;;20.48;57.47;101716.94;5102448;27;45338;-83
2023/08/21 03:29:30;;;;;;;;;6.00;5.50;;;;;20.47;57.52;101720.56;5084311;27;58064;-82
2023/08/21 03:31:56;;;;;;;;;6.00;5.00;;;;;20.47;57.89;101724.06;5100579;27;51358;-83
2023/08/21 03:34:21;;;;;;;;;5.25;3.25;;;;;20.50;57.71;101733.66;5097201;27;66851;-82
2023/08/21 03:36:47;;;;;;;;;3.00;2.25;;;;;20.48;58.20;101733.75;5097842;27;45251;-83
2023/08/21 03:39:12;;;;;;;;;4.75;1.75;;;;;20.46;57.48;101725.00;5095784;27;60488;-83
2023/08/21 03:41:37;;;;;;;;;2.00;2.00;;;;;20.53;57.91;101733.50;5072462;27;45394;-82
2023/08/21 03:44:03;;;;;;;;;1.75;1.75;;;;;20.57;57.41;101729.75;5085356;27;46520;-82
2023/08/21 03:46:28;;;;;;;;;3.00;1.75;;;;;20.56;57.58;101724.53;5071925;27;45964;-83
2023/08/21 03:48:54;;;;;;;;;1.00;0.00;;;;;20.57;57.55;101732.41;5074643;27;45286;-82
2023/08/21 03:51:19;;;;;;;;;2.00;2.00;;;;;20.56;57.80;101725.38;5095749;27;45437;-82
2023/08/21 03:53:44;;;;;;;;;1.75;1.00;;;;;20.54;57.40;101731.69;5092082;27;64389;-83
2023/08/21 03:56:10;;;;;;;;;2.25;1.50;;;;;20.57;57.54;101742.19;5087202;27;60983;-83
2023/08/21 03:58:35;;;;;;;;;1.50;1.00;;;;;20.54;57.57;101735.25;5100916;27;58524;-81
2023/08/21 04:01:00;;;;;;;;;0.25;0.00;;;;;20.57;57.42;101736.88;5081236;27;46478;-82
2023/08/21 04:03:26;;;;;;;;;3.00;1.50;;;;;20.56;57.60;101738.69;5092903;27;68600;-83
2023/08/21 04:05:54;;;;;;;;;2.50;1.00;;;;;20.51;57.67;101727.41;5083922;27;52412;-82
2023/08/21 04:08:19;;;;;;;;;3.00;1.25;;;;;20.51;57.54;101729.22;5106497;27;45483;-84
2023/08/21 04:10:45;;;;;;;;;2.25;0.75;;;;;20.49;57.50;101729.31;5098317;27;45303;-83
2023/08/21 04:13:10;;;;;;;;;2.00;1.00;;;;;20.47;57.68;101733.84;5073667;27;73704;-82
2023/08/21 04:15:36;;;;;;;;;2.75;1.00;;;;;20.44;57.43;101726.88;5100970;27;63049;-84
2023/08/21 04:18:01;;;;;;;;;6.00;2.00;;;;;20.39;57.67;101726.25;5083908;27;45203;-83
2023/08/21 04:20:26;;;;;;;;;4.00;1.00;;;;;20.37;57.98;101733.47;5097900;27;45501;-83
2023/08/21 04:22:54;;;;;;;;;1.50;1.50;;;;;20.40;57.63;101740.44;5093952;27;51578;-84
2023/08/21 04:25:20;;;;;;;;;2.75;2.00;;;;;20.41;57.11;101745.66;5085750;27;45648;-82
2023/08/21 04:27:48;;;;;;;;;2.75;1.00;;;;;20.38;57.93;101744.94;5090474;27;45472;-83
2023/08/21 04:30:14;;;;;;;;;2.25;2.00;;;;;20.35;57.50;101743.31;5086868;27;45272;-83
2023/08/21 04:32:39;;;;;;;;;0.25;0.25;;;;;20.29;57.41;101744.50;5093904;27;67623;-83
2023/08/21 04:35:05;;;;;;;;;1.00;1.00;;;;;20.25;57.78;101739.41;5088362;27;45372;-83
2023/08/21 04:37:31;;;;;;;;;4.25;1.75;;;;;20.22;57.74;101747.53;5078067;27;45313;-84
2023/08/21 04:39:56;;;;;;;;;1.50;1.00;;;;;20.20;57.24;101755.63;5083852;27;45388;-83
2023/08/21 04:42:22;;;;;;;;;1.50;1.50;;;;;20.18;57.82;101759.28;5080195;28;47874;-83
2023/08/21 04:44:48;;;;;;;;;3.25;1.00;;;;;20.13;57.86;101753.34;5095277;27;45290;-82
2023/08/21 04:47:24;;;;;;;;;1.00;1.00;;;;;20.10;57.86;101752.56;5082605;27;45338;-82
2023/08/21 04:49:51;;;;;;;;;1.50;1.00;;;;;20.13;57.83;101758.66;5077567;27;45492;-83
2023/08/21 04:52:17;;;;;;;;;1.75;1.00;;;;;20.09;57.85;101764.09;5072919;27;46812;-83
2023/08/21 04:54:42;;;;;;;;;0.00;0.00;;;;;20.08;57.91;101756.25;5086658;27;45327;-84
2023/08/21 04:57:08;;;;;;;;;1.50;1.50;;;;;20.05;57.58;101759.91;5099139;27;50755;-84
2023/08/21 04:59:35;;;;;;;;;3.00;1.00;;;;;20.07;58.21;101767.81;5071155;27;45405;-84
2023/08/21 05:02:00;;;;;;;;;1.00;1.00;;;;;20.06;57.96;101764.28;5079777;27;45351;-83
2023/08/21 05:04:25;;;;;;;;;1.25;0.50;;;;;20.02;58.07;101759.19;5096761;27;47097;-83
2023/08/21 05:06:51;;;;;;;;;2.00;1.00;;;;;20.03;58.41;101766.25;5068262;27;70403;-84
2023/08/21 05:09:16;;;;;;;;;2.50;1.50;;;;;20.03;58.23;101766.25;5098573;27;62616;-84
2023/08/21 05:11:41;;;;;;;;;1.50;1.00;;;;;19.98;58.17;101769.13;5079417;27;46029;-83
2023/08/21 05:14:07;;;;;;;;;3.75;1.00;;;;;19.98;57.99;101769.13;5078476;27;60113;-83
2023/08/21 05:16:33;;;;;;;;;1.75;1.00;;;;;19.97;58.19;101770.03;5099560;27;45272;-83
2023/08/21 05:18:58;;;;;;;;;1.50;1.50;;;;;19.96;57.89;101760.38;5094957;27;45324;-83
2023/08/21 05:21:24;;;;;;;;;2.00;0.00;;;;;19.98;57.86;101773.59;5095386;27;47680;-83
2023/08/21 05:23:49;;;;;;;;;2.00;1.00;;;;;19.92;58.22;101770.28;5085075;27;62339;-82
2023/08/21 05:26:14;;;;;;;;;4.50;1.00;;;;;19.96;58.09;101772.81;5086855;27;57949;-83
2023/08/21 05:28:40;;;;;;;;;2.00;0.00;;;;;19.95;57.90;101771.06;5088735;27;47090;-82
2023/08/21 05:31:05;;;;;;;;;0.00;0.00;;;;;19.98;57.62;101774.44;5092285;27;45410;-81
2023/08/21 05:33:30;;;;;;;;;0.00;0.00;;;;;20.02;57.64;101772.47;5085205;27;63190;-82
2023/08/21 05:35:57;;;;;;;;;1.75;1.00;;;;;20.00;57.78;101771.69;5084586;28;45425;-81
2023/08/21 05:38:22;;;;;;;;;1.00;1.00;;;;;20.09;57.61;101773.88;5099031;27;45425;-82
2023/08/21 05:40:48;;;;;;;;;3.00;1.25;;;;;20.08;57.94;101775.69;5091679;27;70839;-82
2023/08/21 05:43:14;;;;;;;;;0.25;0.25;;;;;20.14;58.05;101779.84;5098104;27;45636;-82
2023/08/21 05:45:39;;;;;;;;;3.50;1.00;;;;;20.19;57.61;101776.97;5087037;27;58755;-82
2023/08/21 05:48:04;;;;;;;;;3.00;1.00;;;;;20.21;57.58;101786.56;5082123;27;45339;-83
2023/08/21 05:50:30;;;;;;;;;7.25;2.00;;;;;20.21;57.25;101783.06;5082249;27;45957;-81
2023/08/21 05:52:57;;;;;;;;;7.50;5.50;;;;;20.26;57.51;101794.31;5095440;27;45436;-83
2023/08/21 05:55:23;;;;;;;;;4.50;2.00;;;;;20.25;57.37;101789.91;5088932;27;45325;-82
2023/08/21 05:57:48;;;;;;;;;3.25;1.00;;;;;20.25;57.44;101781.94;5076551;27;45508;-82
2023/08/21 06:00:14;;;;;;;;;2.00;1.00;;;;;20.30;57.15;101790.53;5107265;27;46223;-83
2023/08/21 06:02:41;;;;;;;;;2.25;1.00;;;;;20.32;57.41;101793.13;5075844;28;45272;-82
2023/08/21 06:05:07;;;;;;;;;3.00;1.00;;;;;20.34;57.02;101800.06;5117791;27;45239;-84
2023/08/21 06:07:32;;;;;;;;;2.00;2.00;;;;;20.36;56.71;101792.03;5097328;27;45580;-84
2023/08/21 06:09:58;;;;;;;;;1.00;1.00;;;;;20.37;56.36;101793.75;5093501;27;45333;-83
2023/08/21 06:12:23;;;;;;;;;1.00;0.25;;;;;20.39;56.76;101797.19;5100433;27;61875;-82
2023/08/21 06:14:48;;;;;;;;;0.25;0.25;;;;;20.38;56.49;101799.00;5102695;27;69230;-82
2023/08/21 06:17:14;;;;;;;;;2.75;0.75;;;;;20.40;56.60;101796.28;5077677;28;60219;-83
2023/08/21 06:19:39;;;;;;;;;0.00;0.00;;;;;20.40;56.57;101798.94;5104490;27;69118;-83
2023/08/21 06:22:04;;;;;;;;;1.50;0.25;;;;;20.42;56.23;101800.56;5100182;27;62261;-82
2023/08/21 06:24:30;;;;;;;;;1.00;0.00;;;;;20.39;56.19;101798.03;5093429;27;66442;-83
2023/08/21 06:26:55;;;;;;;;;3.75;0.25;;;;;20.43;56.45;101804.06;5108370;27;52332;-82
2023/08/21 06:29:21;;;;;;;;;1.50;1.00;;;;;20.42;56.45;101805.03;5110121;27;45539;-81
2023/08/21 06:31:46;;;;;;;;;0.75;0.25;;;;;20.43;56.32;101802.28;5091449;27;56102;-82
2023/08/21 06:34:12;;;;;;;;;2.25;1.00;;;;;20.44;56.12;101801.34;5100230;27;45203;-82
2023/08/21 06:36:37;;;;;;;;;3.25;0.00;;;;;20.46;56.26;101794.13;5082832;27;45309;-82
2023/08/21 06:39:03;;;;;;;;;3.25;0.00;;;;;20.53;55.96;101801.81;5092816;27;66595;-82
2023/08/21 06:41:29;;;;;;;;;2.00;1.00;;;;;20.54;56.31;101799.06;5085121;27;45296;-82
2023/08/21 06:43:54;;;;;;;;;2.25;0.25;;;;;20.56;56.13;101797.19;5100068;27;45220;-82
2023/08/21 06:46:19;;;;;;;;;1.00;0.50;;;;;20.54;55.90;101796.41;5102598;27;45297;-83
2023/08/21 06:48:45;;;;;;;;;1.50;0.25;;;;;20.56;56.24;101799.84;5071295;27;45298;-83
2023/08/21 06:51:10;;;;;;;;;3.00;0.00;;;;;20.59;56.05;101804.13;5102455;27;63696;-82
2023/08/21 06:53:36;;;;;;;;;3.00;0.75;;;;;20.63;55.54;101813.72;5075772;27;46082;-83
2023/08/21 06:56:02;;;;;;;;;1.50;0.00;;;;;20.63;55.81;101808.41;5085377;27;45001;-83
2023/08/21 06:58:27;;;;;;;;;3.00;0.00;;;;;20.57;55.68;101796.22;5092780;27;45430;-83
2023/08/21 07:00:56;;;;;;;;;2.75;1.00;;;;;20.69;55.73;101808.06;5097001;27;45389;-83
2023/08/21 07:03:22;;;;;;;;;1.00;1.00;;;;;20.72;55.65;101801.75;5085352;27;61161;-84
2023/08/21 07:05:56;;;;;;;;;0.00;0.00;;;;;20.72;55.79;101801.75;5091021;27;45298;-82
2023/08/21 07:08:21;;;;;;;;;0.75;0.75;;;;;20.75;55.08;101796.25;5103451;27;45407;-83
2023/08/21 07:10:46;;;;;;;;;0.00;0.00;;;;;20.78;55.26;101798.75;5086552;27;45359;-83
2023/08/21 07:13:12;;;;;;;;;0.50;0.00;;;;;20.80;54.92;101807.50;5089037;27;51741;-84
2023/08/21 07:15:37;;;;;;;;;1.00;0.50;;;;;20.83;54.87;101804.69;5097829;27;60257;-83
2023/08/21 07:18:03;;;;;;;;;1.75;0.00;;;;;20.84;54.74;101801.06;5091323;27;52145;-83
2023/08/21 07:20:28;;;;;;;;;5.50;1.00;;;;;20.86;54.89;101799.22;5101460;27;45164;-83
2023/08/21 07:22:53;;;;;;;;;1.00;0.25;;;;;20.93;54.52;101807.69;5099777;27;45403;-82
2023/08/21 07:25:19;;;;;;;;;2.00;0.25;;;;;20.92;54.28;101804.19;5098633;27;57206;-82
2023/08/21 07:27:44;;;;;;;;;2.00;1.00;;;;;20.96;54.15;101812.88;5090673;27;69513;-83
2023/08/21 07:30:10;;;;;;;;;0.00;0.00;;;;;21.01;54.34;101810.81;5083070;27;55125;-82
2023/08/21 07:32:36;;;;;;;;;0.75;0.75;;;;;21.03;54.59;101814.25;5092855;27;45168;-82
2023/08/21 07:35:01;;;;;;;;;1.25;0.00;;;;;21.11;54.33;101820.03;5094566;27;50624;-82
2023/08/21 07:37:27;;;;;;;;;0.25;0.25;;;;;21.17;54.70;101824.16;5072078;27;47108;-82
2023/08/21 07:39:52;;;;;;;;;2.00;0.25;;;;;21.22;54.20;101814.13;5097721;27;53110;-83
2023/08/21 07:42:18;;;;;;;;;2.25;1.00;;;;;21.23;54.51;101811.38;5063677;28;45322;-82
2023/08/21 07:44:44;;;;;;;;;0.75;0.75;;;;;21.32;54.60;101818.00;5099390;27;45336;-82
2023/08/21 07:47:10;;;;;;;;;1.50;0.00;;;;;21.42;54.15;101836.97;5112279;27;46377;-83
2023/08/21 07:49:35;;;;;;;;;1.50;0.75;;;;;21.47;53.92;101832.28;5079131;27;45326;-83
2023/08/21 07:52:02;;;;;;;;;1.50;0.00;;;;;21.45;53.69;101828.84;5082044;27;63089;-82
2023/08/21 07:54:27;;;;;;;;;2.75;0.50;;;;;21.49;53.54;101830.41;5079736;27;45499;-83
2023/08/21 07:56:53;;;;;;;;;2.00;1.00;;;;;21.58;53.60;101829.03;5095271;27;45481;-83
2023/08/21 07:59:19;;;;;;;;;3.50;2.00;;;;;21.63;53.52;101834.13;5097791;27;45274;-84
2023/08/21 08:01:45;;;;;;;;;2.25;0.00;;;;;21.64;53.45;101833.16;5094865;27;45207;-84
2023/08/21 08:04:10;;;;;;;;;0.25;0.00;;;;;21.69;53.69;101820.44;5094913;27;45323;-84
2023/08/21 08:06:36;;;;;;;;;2.00;1.00;;;;;21.70;53.02;101823.00;5073557;27;48093;-83
2023/08/21 08:09:03;;;;;;;;;3.50;0.75;;;;;21.75;53.09;101828.94;5082430;27;45484;-83
2023/08/21 08:11:29;;;;;;;;;0.75;0.00;;;;;21.76;53.37;101821.81;5076054;27;45405;-82
2023/08/21 08:13:55;;;;;;;;;1.00;1.00;;;;;21.83;53.46;101831.16;5080285;27;45451;-81
2023/08/21 08:16:20;;;;;;;;;1.00;1.00;;;;;21.87;53.20;101827.41;5101627;27;46004;-83
2023/08/21 08:18:46;;;;;;;;;2.50;2.50;;;;;21.92;53.11;101836.00;5103006;27;67060;-82
2023/08/21 08:21:12;;;;;;;;;2.00;1.50;;;;;21.96;53.14;101836.66;5088853;27;55939;-82
2023/08/21 08:23:38;;;;;;;;;1.00;0.00;;;;;22.00;52.72;101836.38;5090713;27;50096;-83
2023/08/21 08:26:03;;;;;;;;;0.25;0.25;;;;;22.05;52.79;101827.28;5110228;27;51222;-83
2023/08/21 08:28:29;;;;;;;;;0.00;0.00;;;;;22.10;52.46;101831.41;5106832;27;45165;-83
2023/08/21 08:30:54;;;;;;;;;0.00;0.00;;;;;22.19;52.45;101838.84;5082433;27;45726;-84
2023/08/21 08:33:19;;;;;;;;;0.50;0.50;;;;;22.19;52.64;101822.00;5106191;27;45557;-82
2023/08/21 08:35:45;;;;;;;;;1.00;1.00;;;;;22.28;52.27;101826.81;5105047;27;55304;-83
2023/08/21 08:38:10;;;;;;;;;0.00;0.00;;;;;22.28;52.64;101824.16;5117087;27;45214;-84
2023/08/21 08:40:45;;;;;;;;;0.50;0.25;;;;;22.35;52.44;101830.00;5091573;27;45300;-82
2023/08/21 08:43:14;;;;;;;;;1.00;0.75;;;;;22.36;51.71;101824.56;5082200;27;45477;-83
2023/08/21 08:45:40;;;;;;;;;2.25;1.00;;;;;22.41;51.68;101824.28;5090113;27;46137;-83
2023/08/21 08:48:07;;;;;;;;;0.75;0.75;;;;;22.47;51.76;101817.72;5087874;27;45464;-83
2023/08/21 08:50:33;;;;;;;;;1.75;1.00;;;;;22.54;51.80;101813.72;5094652;27;45468;-82
2023/08/21 08:52:59;;;;;;;;;1.00;0.00;;;;;22.66;51.69;101823.66;5092208;27;45423;-82
2023/08/21 08:55:25;;;;;;;;;0.25;0.25;;;;;22.70;51.42;101803.84;5098332;27;45313;-83
2023/08/21 08:57:52;;;;;;;;;0.00;0.00;;;;;22.83;51.79;101814.63;5089015;27;45578;-83
2023/08/21 09:00:17;;;;;;;;;3.75;0.00;;;;;22.91;51.60;101811.47;5098350;27;45413;-83
2023/08/21 09:02:42;;;;;;;;;1.00;0.50;;;;;22.99;50.94;101813.69;5104862;27;45398;-83
2023/08/21 09:05:09;;;;;;;;;3.00;0.25;;;;;23.02;51.07;101816.13;5102417;27;62025;-84
2023/08/21 09:07:34;;;;;;;;;3.00;1.50;;;;;23.10;51.20;101821.91;5078130;27;45295;-84
2023/08/21 09:10:00;;;;;;;;;2.25;0.25;;;;;23.15;50.71;101809.13;5096931;27;60487;-84
2023/08/21 09:12:25;;;;;;;;;2.00;1.00;;;;;23.24;50.81;101818.38;5104163;27;45351;-84
2023/08/21 09:14:51;;;;;;;;;5.00;3.00;;;;;23.27;50.41;101807.50;5099366;27;46670;-84
2023/08/21 09:17:16;;;;;;;;;3.00;2.00;;;;;23.34;50.78;101799.94;5092763;27;61907;-84
2023/08/21 09:19:43;;;;;;;;;1.00;1.00;;;;;23.42;50.07;101790.47;5089726;27;45386;-83
2023/08/21 09:22:18;;;;;;;;;0.25;0.25;;;;;23.59;50.34;101793.88;5092232;27;45549;-84
2023/08/21 09:25:09;;;;;;;;;0.25;0.25;;;;;23.72;50.07;101809.97;5105735;27;47569;-82
2023/08/21 09:27:38;;;;;;;;;4.25;1.00;;;;;23.73;49.92;101792.94;5072851;27;45710;-84
2023/08/21 09:30:05;;;;;;;;;2.00;1.00;;;;;23.81;49.53;101799.53;5082016;27;45295;-82
2023/08/21 09:33:00;;;;;;;;;0.50;0.25;;;;;23.89;50.03;101804.41;5109992;27;45224;-82
2023/08/21 09:35:26;;;;;;;;;2.25;1.25;;;;;23.90;49.57;101794.56;5090565;27;45561;-83
2023/08/21 09:37:55;;;;;;;;;2.25;1.00;;;;;23.90;49.18;101792.72;5101990;27;45862;-84
2023/08/21 09:40:21;;;;;;;;;1.75;1.00;;;;;23.90;49.33;101798.06;5084370;27;45629;-83
2023/08/21 09:42:57;;;;;;;;;2.75;0.25;;;;;23.95;49.64;101797.78;5077948;27;46325;-83
2023/08/21 09:45:29;;;;;;;;;4.00;1.25;;;;;23.99;49.43;101788.59;5081136;27;47716;-83
2023/08/21 09:47:54;;;;;;;;;3.25;1.00;;;;;24.09;49.16;101800.38;5082496;27;45330;-83
2023/08/21 09:50:21;;;;;;;;;1.75;0.25;;;;;24.15;49.03;101796.44;5099948;27;57833;-83
2023/08/21 09:52:47;;;;;;;;;0.25;0.25;;;;;24.15;49.11;101783.06;5086614;27;45244;-82
2023/08/21 09:55:16;;;;;;;;;2.00;2.00;;;;;24.26;49.13;101783.19;5082095;27;45488;-84
2023/08/21 09:57:41;;;;;;;;;2.00;1.25;;;;;24.30;49.20;101781.19;5098245;27;45334;-84
2023/08/21 10:00:15;;;;;;;;;1.25;1.25;;;;;24.38;48.76;101786.84;5100430;27;45415;-83
2023/08/21 10:02:42;;;;;;;;;0.25;0.25;;;;;24.43;49.06;101776.66;5099231;27;45507;-83
2023/08/21 10:05:08;;;;;;;;;1.75;0.25;;;;;24.50;48.70;101793.16;5092131;27;46052;-82
2023/08/21 10:07:33;;;;;;;;;1.50;0.25;;;;;24.52;48.57;101789.41;5097885;27;45254;-82
2023/08/21 10:09:59;;;;;;;;;1.25;0.25;;;;;24.59;48.90;101784.53;5089369;27;61824;-83
2023/08/21 10:12:24;;;;;;;;;1.00;0.50;;;;;24.66;48.82;101783.13;5087125;27;45331;-83
2023/08/21 10:14:50;;;;;;;;;3.00;1.00;;;;;24.72;48.50;101781.84;5083016;27;64756;-81
2023/08/21 10:17:15;;;;;;;;;4.00;0.25;;;;;24.81;48.19;101779.38;5092678;27;45376;-83
2023/08/21 10:19:41;;;;;;;;;2.25;0.50;;;;;24.85;48.29;101763.09;5090288;27;58785;-83
2023/08/21 10:22:06;;;;;;;;;1.00;1.00;;;;;24.98;48.04;101770.16;5083865;27;50617;-83
2023/08/21 10:24:39;;;;;;;;;1.25;0.25;;;;;25.08;48.18;101769.50;5065479;27;55346;-83
2023/08/21 10:27:06;;;;;;;;;4.00;1.25;;;;;25.15;47.85;101768.94;5095720;27;45666;-81
2023/08/21 10:29:32;;;;;;;;;2.25;0.00;;;;;25.24;47.90;101764.72;5089738;27;45325;-81
2023/08/21 10:32:05;;;;;;;;;3.75;1.25;;;;;25.31;47.92;101757.13;5099998;27;45189;-82
2023/08/21 10:34:37;;;;;;;;;0.00;0.00;;;;;25.35;47.49;101761.28;5101592;27;47395;-82
2023/08/21 10:37:05;;;;;;;;;2.25;1.25;;;;;25.40;47.55;101767.19;5068892;27;45444;-82
2023/08/21 10:39:32;;;;;;;;;1.25;1.25;;;;;25.41;47.41;101758.19;5098746;27;45382;-81
2023/08/21 10:42:07;;;;;;;;;2.00;0.67;;;;;25.42;46.95;101762.56;5055997;27;1151102;-81
2023/08/21 10:44:42;;;;;;;;;2.00;1.00;;;;;25.42;46.70;101761.72;5081008;27;46942;-82
2023/08/21 10:47:24;;;;;;;;;3.75;0.25;;;;;25.39;46.70;101754.72;5095432;27;45295;-79
2023/08/21 10:50:00;;;;;;;;;2.00;1.00;;;;;25.42;47.11;101753.66;5100469;27;45448;-81
2023/08/21 10:52:29;;;;;;;;;2.75;0.25;;;;;25.44;46.54;101733.81;5108468;27;45622;-81
2023/08/21 10:54:57;;;;;;;;;0.75;0.50;;;;;25.48;46.64;101737.13;5114327;27;45164;-83
2023/08/21 10:57:30;;;;;;;;;1.25;0.25;;;;;25.55;46.65;101743.72;5111727;27;45149;-81
2023/08/21 11:00:09;;;;;;;;;3.75;1.00;;;;;25.60;46.31;101738.88;5102080;27;45234;-81
2023/08/21 11:02:35;;;;;;;;;3.00;1.00;;;;;25.64;46.32;101739.50;5116607;27;45297;-81
2023/08/21 11:05:03;;;;;;;;;0.25;0.25;;;;;25.70;46.47;101739.91;5117085;27;47240;-82
2023/08/21 11:07:30;;;;;;;;;0.00;0.00;;;;;25.74;46.19;101733.34;5106616;27;45116;-80
2023/08/21 11:09:56;;;;;;;;;1.00;1.00;;;;;25.81;45.84;101736.41;5116031;27;45405;-81
2023/08/21 11:12:23;;;;;;;;;3.75;1.00;;;;;25.86;46.19;101726.19;5106206;27;45343;-80
2023/08/21 11:14:49;;;;;;;;;1.00;1.00;;;;;25.95;45.33;101733.56;5097325;27;45432;-82
2023/08/21 11:17:15;;;;;;;;;3.75;1.00;;;;;25.96;46.03;101726.41;5099104;27;45370;-82
2023/08/21 11:19:41;;;;;;;;;0.75;0.00;;;;;26.06;45.07;101729.22;5066825;28;45933;-84
2023/08/21 11:22:07;;;;;;;;;0.00;0.00;;;;;26.04;44.82;101729.31;5093907;27;45319;-82